Time;durP1;ratioP1;P1;durP2;ratioP2;P2;SDS_P1;SDS_P2;PMS_P1;PMS_P2;Temp;Humidity;BMP_temperature;BMP_pressure;BME280_temperature;BME280_humidity;BME280_pressure;Samples;Min_cycle;Max_cycle;Signal;HPM_P1;HPM_P2
2024/03/17 00:01:36;;;;;;;15.57;5.63;;;6.60;99.90;;;;;;5062135;28;20571;-70
2024/03/17 00:04:02;;;;;;;14.68;5.20;;;6.60;99.90;;;;;;5062876;28;20195;-70
2024/03/17 00:06:29;;;;;;;21.35;5.50;;;6.60;99.90;;;;;;5063323;28;20296;-71
2024/03/17 00:08:55;;;;;;;16.27;5.80;;;6.60;99.90;;;;;;5061581;28;20209;-71
2024/03/17 00:11:21;;;;;;;15.85;5.20;;;6.50;99.90;;;;;;5062925;28;20745;-70
2024/03/17 00:13:47;;;;;;;15.43;5.18;;;6.50;99.90;;;;;;5062450;28;20210;-69
2024/03/17 00:16:14;;;;;;;13.70;4.72;;;6.50;99.90;;;;;;5062838;28;20303;-70
2024/03/17 00:18:40;;;;;;;17.75;4.47;;;6.50;99.90;;;;;;5062869;28;20194;-71
2024/03/17 00:21:06;;;;;;;13.57;4.90;;;6.50;99.90;;;;;;5062001;28;20571;-70
2024/03/17 00:23:32;;;;;;;16.55;4.32;;;6.40;99.90;;;;;;5062857;28;20201;-68
2024/03/17 00:25:58;;;;;;;13.93;4.63;;;6.40;99.90;;;;;;5058718;28;20218;-70
2024/03/17 00:28:24;;;;;;;9.80;4.03;;;6.40;99.90;;;;;;5062558;28;20570;-70
2024/03/17 00:30:50;;;;;;;11.93;3.90;;;6.40;99.90;;;;;;5062018;28;20674;-71
2024/03/17 00:33:16;;;;;;;14.55;4.10;;;6.30;99.90;;;;;;5061850;28;20206;-70
2024/03/17 00:35:42;;;;;;;10.18;4.15;;;6.30;99.90;;;;;;5077658;28;20403;-69
2024/03/17 00:38:11;;;;;;;13.23;4.10;;;6.30;99.90;;;;;;5061579;28;20239;-69
2024/03/17 00:40:41;;;;;;;11.63;4.05;;;6.30;99.90;;;;;;5062173;28;20186;-69
2024/03/17 00:43:07;;;;;;;9.50;4.25;;;6.20;99.90;;;;;;5076902;28;20650;-70
2024/03/17 00:45:33;;;;;;;12.70;4.18;;;6.20;99.90;;;;;;5062429;28;20213;-69
2024/03/17 00:47:59;;;;;;;13.57;4.10;;;6.20;99.90;;;;;;5061503;28;20199;-69
2024/03/17 00:50:25;;;;;;;9.00;4.05;;;6.20;99.90;;;;;;5060283;28;20277;-70
2024/03/17 00:52:50;;;;;;;13.52;4.13;;;6.10;99.90;;;;;;5062242;28;20254;-71
2024/03/17 00:55:16;;;;;;;13.75;4.47;;;6.10;99.90;;;;;;5061835;28;20236;-71
2024/03/17 00:57:42;;;;;;;9.68;4.25;;;6.10;99.90;;;;;;5061793;28;20222;-71
2024/03/17 01:00:15;;;;;;;9.30;4.10;;;6.00;99.90;;;;;;5060841;28;20206;-70
2024/03/17 01:02:41;;;;;;;13.85;4.35;;;6.00;99.90;;;;;;5060452;28;20205;-70
2024/03/17 01:05:07;;;;;;;18.33;4.60;;;6.00;99.90;;;;;;5061050;28;20194;-68
2024/03/17 01:07:33;;;;;;;10.48;4.32;;;5.90;99.90;;;;;;5061677;28;20194;-71
2024/03/17 01:10:00;;;;;;;11.75;4.45;;;5.90;99.90;;;;;;5061808;28;20299;-71
2024/03/17 01:12:26;;;;;;;13.27;4.35;;;5.90;99.90;;;;;;5061122;28;20210;-71
2024/03/17 01:14:52;;;;;;;15.95;7.75;;;5.90;99.90;;;;;;5062183;28;20471;-68
2024/03/17 01:17:19;;;;;;;27.17;11.23;;;5.80;99.90;;;;;;5060299;28;20197;-69
2024/03/17 01:19:45;;;;;;;14.57;6.13;;;5.80;99.90;;;;;;5061020;28;20239;-70
2024/03/17 01:22:11;;;;;;;19.30;6.18;;;5.80;99.90;;;;;;5076677;28;20631;-70
2024/03/17 01:24:39;;;;;;;14.20;5.25;;;5.80;99.90;;;;;;5060857;28;20191;-71
2024/03/17 01:27:06;;;;;;;13.93;5.38;;;5.80;99.90;;;;;;5061741;28;20187;-70
2024/03/17 01:29:32;;;;;;;15.07;5.43;;;5.70;99.90;;;;;;5061572;28;20607;-70
2024/03/17 01:31:57;;;;;;;15.23;4.97;;;5.70;99.90;;;;;;5060093;28;20272;-69
2024/03/17 01:34:23;;;;;;;11.90;5.57;;;5.70;99.90;;;;;;5060807;28;20191;-70
2024/03/17 01:36:49;;;;;;;15.00;5.75;;;5.60;99.90;;;;;;5060348;28;20199;-69
2024/03/17 01:39:16;;;;;;;15.32;5.15;;;5.60;99.90;;;;;;5060167;28;20235;-69
2024/03/17 01:41:42;;;;;;;17.23;6.03;;;5.60;99.90;;;;;;5060874;28;20201;-70
2024/03/17 01:44:21;;;;;;;15.85;5.57;;;5.50;99.90;;;;;;5061039;28;20186;-70
2024/03/17 01:46:47;;;;;;;13.50;5.38;;;5.50;99.90;;;;;;5060681;28;20281;-71
2024/03/17 01:49:12;;;;;;;15.82;5.80;;;5.50;99.90;;;;;;5059920;28;20282;-70
2024/03/17 01:51:38;;;;;;;11.80;5.40;;;5.50;99.90;;;;;;5061544;28;20198;-70
2024/03/17 01:54:04;;;;;;;15.73;6.05;;;5.40;99.90;;;;;;5075654;28;20214;-68
2024/03/17 01:56:30;;;;;;;20.00;6.28;;;5.40;99.90;;;;;;5061619;28;20201;-67
2024/03/17 01:58:57;;;;;;;18.42;6.55;;;5.40;99.90;;;;;;5060531;28;20194;-71
2024/03/17 02:01:23;;;;;;;12.63;5.90;;;5.30;99.90;;;;;;5076550;28;20251;-70
2024/03/17 02:03:49;;;;;;;15.18;6.30;;;5.30;99.90;;;;;;5042345;28;20659;-71
2024/03/17 02:06:15;;;;;;;10.65;5.72;;;5.30;99.90;;;;;;5061235;28;20202;-70
2024/03/17 02:08:52;;;;;;;18.60;6.60;;;5.30;99.90;;;;;;5063024;28;20301;-70
2024/03/17 02:11:29;;;;;;;13.73;6.50;;;5.20;99.90;;;;;;5064832;28;20630;-71
2024/03/17 02:13:56;;;;;;;12.30;5.85;;;5.20;99.90;;;;;;5079211;28;20209;-70
2024/03/17 02:16:25;;;;;;;23.38;6.70;;;5.20;99.90;;;;;;5065102;28;20183;-71
2024/03/17 02:18:55;;;;;;;16.08;6.68;;;5.10;99.90;;;;;;5050543;28;20198;-70
2024/03/17 02:21:27;;;;;;;21.77;7.07;;;5.10;99.90;;;;;;5080608;28;20217;-69
2024/03/17 02:23:53;;;;;;;17.08;7.22;;;5.10;99.90;;;;;;5064715;28;20190;-69
2024/03/17 02:26:19;;;;;;;23.40;7.78;;;5.10;99.90;;;;;;5064194;28;20730;-70
2024/03/17 02:28:46;;;;;;;20.92;7.68;;;5.10;99.90;;;;;;5063796;28;20190;-70
2024/03/17 02:31:15;;;;;;;15.43;7.20;;;5.10;99.90;;;;;;5064646;28;20706;-69
2024/03/17 02:33:41;;;;;;;16.60;6.97;;;5.10;99.90;;;;;;5064440;28;20682;-70
2024/03/17 02:36:07;;;;;;;12.93;6.90;;;5.00;99.90;;;;;;5064331;28;20239;-70
2024/03/17 02:41:18;;;;;;;18.73;7.18;;;5.00;99.90;;;;;;5064212;28;20214;-71
2024/03/17 02:43:45;;;;;;;13.18;6.68;;;5.00;99.90;;;;;;5064094;28;20591;-67
2024/03/17 02:46:15;;;;;;;17.23;7.38;;;5.00;99.90;;;;;;5064364;28;20205;-70
2024/03/17 02:48:46;;;;;;;22.63;10.48;;;5.00;99.90;;;;;;5064098;28;20195;-69
2024/03/17 02:51:14;;;;;;;27.17;15.30;;;4.90;99.90;;;;;;5063958;28;20195;-70
2024/03/17 02:53:41;;;;;;;29.38;17.52;;;5.00;99.90;;;;;;5062531;28;20214;-71
2024/03/17 02:56:07;;;;;;;29.00;18.52;;;5.00;99.90;;;;;;5063683;28;20187;-72
2024/03/17 02:58:36;;;;;;;31.48;17.88;;;5.00;99.90;;;;;;5062394;28;20677;-69
2024/03/17 03:01:09;;;;;;;33.55;18.33;;;5.10;99.90;;;;;;5064095;28;20218;-69
2024/03/17 03:03:36;;;;;;;25.88;16.83;;;5.10;99.90;;;;;;5063570;28;20538;-71
2024/03/17 03:06:09;;;;;;;28.63;15.98;;;5.10;99.90;;;;;;5063995;28;20195;-70
2024/03/17 03:08:41;;;;;;;30.83;15.02;;;5.20;99.90;;;;;;5063957;28;20198;-71
2024/03/17 03:11:12;;;;;;;22.20;13.30;;;5.30;99.90;;;;;;5063165;28;20233;-71
2024/03/17 03:13:41;;;;;;;22.27;12.35;;;5.30;99.90;;;;;;5062192;28;20578;-72
2024/03/17 03:16:09;;;;;;;21.73;10.23;;;5.40;99.90;;;;;;5063660;28;20195;-70
2024/03/17 03:18:36;;;;;;;19.13;9.13;;;5.40;99.90;;;;;;5061588;28;20666;-70
2024/03/17 03:21:02;;;;;;;17.52;8.38;;;5.50;99.90;;;;;;5062284;28;20243;-70
2024/03/17 03:23:27;;;;;;;17.73;7.07;;;5.50;99.90;;;;;;5079291;28;20194;-71
2024/03/17 03:26:00;;;;;;;10.52;6.38;;;5.60;99.90;;;;;;5063637;28;20689;-69
2024/03/17 03:28:28;;;;;;;11.73;5.95;;;5.60;99.90;;;;;;5061761;28;20198;-72
2024/03/17 03:30:54;;;;;;;14.38;5.93;;;5.60;99.90;;;;;;5063285;28;20195;-70
2024/03/17 03:33:20;;;;;;;13.80;6.20;;;5.70;99.90;;;;;;5063118;28;20999;-69
2024/03/17 03:35:46;;;;;;;14.77;7.63;;;5.70;99.90;;;;;;5063089;28;20955;-71
2024/03/17 03:38:16;;;;;;;19.30;8.20;;;5.70;99.90;;;;;;5063309;28;20221;-71
2024/03/17 03:40:42;;;;;;;16.95;8.75;;;5.80;99.90;;;;;;5063596;28;20222;-70
2024/03/17 03:43:09;;;;;;;20.23;9.30;;;5.80;99.90;;;;;;5078845;28;21063;-71
2024/03/17 03:45:35;;;;;;;18.70;7.95;;;5.80;99.90;;;;;;5062975;28;20190;-71
2024/03/17 03:48:02;;;;;;;15.40;7.55;;;5.90;99.90;;;;;;5059917;28;20271;-69
2024/03/17 03:50:28;;;;;;;15.35;7.65;;;5.90;99.90;;;;;;5062601;28;20558;-71
2024/03/17 03:52:54;;;;;;;17.60;7.43;;;5.90;99.90;;;;;;5061876;28;20674;-71
2024/03/17 03:55:20;;;;;;;14.68;6.82;;;5.90;99.90;;;;;;5063314;28;20217;-71
2024/03/17 03:57:47;;;;;;;15.25;7.47;;;5.90;99.90;;;;;;5078066;28;20249;-71
2024/03/17 04:00:16;;;;;;;13.88;6.03;;;6.00;99.90;;;;;;5062964;28;20186;-71
2024/03/17 04:02:42;;;;;;;16.02;7.65;;;6.00;99.90;;;;;;5062703;28;20976;-70
2024/03/17 04:05:09;;;;;;;22.27;8.35;;;6.00;99.90;;;;;;5062457;28;20201;-72
2024/03/17 04:07:35;;;;;;;16.75;8.73;;;6.00;99.90;;;;;;5078264;28;20202;-70
2024/03/17 04:10:04;;;;;;;19.73;8.30;;;6.10;99.90;;;;;;5062473;28;20769;-70
2024/03/17 04:12:30;;;;;;;12.15;7.13;;;6.10;99.90;;;;;;5077801;28;20218;-69
2024/03/17 04:14:57;;;;;;;12.32;6.00;;;6.10;99.90;;;;;;5062692;28;20739;-73
2024/03/17 04:17:23;;;;;;;10.57;5.47;;;6.10;99.90;;;;;;5062629;28;20198;-70
2024/03/17 04:19:52;;;;;;;14.23;5.38;;;6.10;99.90;;;;;;5062680;28;20179;-68
2024/03/17 04:22:20;;;;;;;14.48;5.10;;;6.10;99.90;;;;;;5062639;28;20602;-71
2024/03/17 04:24:46;;;;;;;10.38;4.72;;;6.20;99.90;;;;;;5062419;28;20208;-71
2024/03/17 04:27:13;;;;;;;11.02;4.72;;;6.20;99.90;;;;;;5061522;28;20191;-69
2024/03/17 04:29:40;;;;;;;8.13;3.65;;;6.20;99.90;;;;;;5061094;28;20190;-70
2024/03/17 04:32:06;;;;;;;11.68;4.45;;;6.20;99.90;;;;;;5061741;28;20197;-70
2024/03/17 04:34:32;;;;;;;15.57;4.22;;;6.20;99.90;;;;;;5061493;28;20182;-72
2024/03/17 04:36:58;;;;;;;8.45;3.60;;;6.20;99.90;;;;;;5077561;28;20191;-71
2024/03/17 04:39:24;;;;;;;7.45;3.47;;;6.20;99.90;;;;;;5063117;28;20412;-71
2024/03/17 04:41:50;;;;;;;11.68;3.97;;;6.20;99.90;;;;;;5062417;28;20273;-70
2024/03/17 04:44:17;;;;;;;10.30;3.80;;;6.20;99.90;;;;;;5061875;28;20269;-71
2024/03/17 04:46:43;;;;;;;15.75;4.00;;;6.20;99.90;;;;;;5061990;28;20182;-71
2024/03/17 04:49:09;;;;;;;9.43;3.80;;;6.20;99.90;;;;;;5060713;28;20199;-70
2024/03/17 04:51:35;;;;;;;9.63;3.80;;;6.20;99.90;;;;;;5060461;28;20662;-71
2024/03/17 04:54:04;;;;;;;9.10;4.55;;;6.20;99.90;;;;;;5061964;28;20217;-70
2024/03/17 04:56:30;;;;;;;10.63;5.28;;;6.20;99.90;;;;;;5059749;28;20187;-69
2024/03/17 04:58:55;;;;;;;16.45;6.55;;;6.20;99.90;;;;;;5061357;28;20187;-70
2024/03/17 05:01:21;;;;;;;14.25;6.95;;;6.20;99.90;;;;;;5062028;28;20185;-70
2024/03/17 05:03:47;;;;;;;11.98;6.03;;;6.30;99.90;;;;;;5077063;28;20195;-69
2024/03/17 05:06:13;;;;;;;12.88;5.82;;;6.20;99.90;;;;;;5061089;28;20708;-70
2024/03/17 05:08:38;;;;;;;8.00;4.53;;;6.20;99.90;;;;;;5061800;28;20186;-68
2024/03/17 05:11:05;;;;;;;10.60;4.40;;;6.20;99.90;;;;;;5061432;28;20226;-69
2024/03/17 05:13:32;;;;;;;8.93;3.60;;;6.20;99.90;;;;;;5061334;28;20214;-71
2024/03/17 05:15:58;;;;;;;9.77;4.10;;;6.20;99.90;;;;;;5076087;28;20201;-71
2024/03/17 05:18:25;;;;;;;8.82;4.43;;;6.20;99.90;;;;;;5061222;28;20178;-69
2024/03/17 05:21:03;;;;;;;10.90;4.70;;;6.20;99.90;;;;;;5060201;28;20210;-70
2024/03/17 05:23:30;;;;;;;12.27;4.93;;;6.10;99.90;;;;;;5056737;28;20552;-72
2024/03/17 05:25:57;;;;;;;10.43;4.55;;;6.10;99.90;;;;;;5061509;28;20190;-69
2024/03/17 05:28:24;;;;;;;10.02;4.90;;;6.20;99.90;;;;;;5059513;28;20542;-71
2024/03/17 05:30:50;;;;;;;13.35;5.10;;;6.10;99.90;;;;;;5060372;28;20191;-70
2024/03/17 05:33:21;;;;;;;15.30;5.00;;;6.20;99.90;;;;;;5061135;28;20306;-72
2024/03/17 05:35:58;;;;;;;14.65;4.90;;;6.10;99.90;;;;;;5061006;28;20229;-69
2024/03/17 05:38:28;;;;;;;12.75;5.15;;;6.20;99.90;;;;;;5060675;28;20250;-70
2024/03/17 05:41:02;;;;;;;7.65;4.70;;;6.20;99.90;;;;;;5060863;28;20200;-68
2024/03/17 05:43:29;;;;;;;12.98;5.00;;;6.20;99.90;;;;;;5059862;28;20190;-70
2024/03/17 05:45:59;;;;;;;13.63;5.28;;;6.20;99.90;;;;;;5042569;28;20194;-71
2024/03/17 05:48:25;;;;;;;11.30;5.20;;;6.20;99.90;;;;;;5060834;28;20695;-73
2024/03/17 05:50:54;;;;;;;13.38;5.57;;;6.30;99.90;;;;;;5061280;28;20194;-70
2024/03/17 05:53:24;;;;;;;12.82;5.07;;;6.30;99.90;;;;;;5060945;28;20233;-70
2024/03/17 05:55:50;;;;;;;14.75;5.00;;;6.20;99.90;;;;;;5060619;28;20216;-71
2024/03/17 05:58:16;;;;;;;12.52;5.03;;;6.30;99.90;;;;;;5061292;28;20231;-68
2024/03/17 06:00:42;;;;;;;13.57;5.32;;;6.30;99.90;;;;;;5060426;28;20772;-70
2024/03/17 06:03:08;;;;;;;12.82;5.32;;;6.20;99.90;;;;;;5060716;28;20206;-72
2024/03/17 06:05:40;;;;;;;13.32;5.22;;;6.20;99.90;;;;;;5058036;28;21009;-70
2024/03/17 06:08:08;;;;;;;12.38;5.40;;;6.20;99.90;;;;;;5060443;28;20222;-69
2024/03/17 06:10:36;;;;;;;12.68;5.22;;;6.20;99.90;;;;;;5075820;28;20335;-70
2024/03/17 06:13:02;;;;;;;22.15;6.45;;;6.20;99.90;;;;;;5060218;28;20251;-70
2024/03/17 06:15:28;;;;;;;13.88;5.53;;;6.20;99.90;;;;;;5076425;28;20225;-70
2024/03/17 06:17:54;;;;;;;13.63;6.28;;;6.20;99.90;;;;;;5060375;28;20655;-71
2024/03/17 06:20:23;;;;;;;15.93;5.72;;;6.20;99.90;;;;;;5060737;28;20179;-70
2024/03/17 06:22:49;;;;;;;13.73;6.18;;;6.20;99.90;;;;;;5059171;28;20190;-70
2024/03/17 06:25:15;;;;;;;19.20;6.38;;;6.30;99.90;;;;;;5060839;28;20194;-75
2024/03/17 06:27:42;;;;;;;15.90;6.05;;;6.30;99.90;;;;;;5060819;28;20673;-67
2024/03/17 06:30:13;;;;;;;17.67;6.05;;;6.40;99.90;;;;;;5060799;28;20190;-69
2024/03/17 06:32:45;;;;;;;13.63;5.90;;;6.50;99.90;;;;;;5059889;28;20347;-71
2024/03/17 06:35:20;;;;;;;12.07;6.10;;;6.50;99.90;;;;;;5060549;28;20323;-71
2024/03/17 06:37:46;;;;;;;14.88;6.20;;;6.60;99.90;;;;;;5075882;28;20242;-71
2024/03/17 06:40:14;;;;;;;17.75;6.18;;;6.70;99.90;;;;;;5059640;28;20198;-69
2024/03/17 06:42:40;;;;;;;14.93;5.85;;;6.70;99.90;;;;;;5074928;28;20214;-70
2024/03/17 06:45:08;;;;;;;18.10;6.93;;;6.80;99.90;;;;;;5060742;28;20224;-69
2024/03/17 06:47:38;;;;;;;15.50;6.15;;;6.80;99.90;;;;;;5060527;28;20198;-70
2024/03/17 06:50:09;;;;;;;15.80;6.20;;;6.80;99.90;;;;;;5060810;28;20190;-70
2024/03/17 06:52:36;;;;;;;12.05;5.75;;;6.80;99.90;;;;;;5058412;28;20218;-70
2024/03/17 06:55:02;;;;;;;14.70;5.68;;;6.80;99.90;;;;;;5062625;28;20197;-73
2024/03/17 06:57:28;;;;;;;19.58;6.13;;;6.90;99.90;;;;;;5063073;28;20555;-71
2024/03/17 06:59:54;;;;;;;19.88;5.45;;;6.90;99.90;;;;;;5064229;28;20268;-70
2024/03/17 07:02:19;;;;;;;13.18;5.18;;;7.00;99.90;;;;;;5063752;28;20632;-71
2024/03/17 07:04:48;;;;;;;13.20;5.70;;;7.00;99.90;;;;;;5062175;28;20292;-68
2024/03/17 07:07:14;;;;;;;16.65;5.45;;;7.00;99.90;;;;;;5064000;28;20230;-72
2024/03/17 07:09:40;;;;;;;14.35;5.53;;;7.10;99.90;;;;;;5063480;28;20825;-71
2024/03/17 07:12:10;;;;;;;22.00;5.65;;;7.20;99.90;;;;;;5063598;28;20226;-67
2024/03/17 07:14:37;;;;;;;11.50;5.43;;;7.30;99.90;;;;;;5064078;28;20802;-74
2024/03/17 07:17:04;;;;;;;10.95;4.90;;;7.40;99.90;;;;;;5079213;28;20226;-71
2024/03/17 07:19:30;;;;;;;11.63;4.78;;;7.50;99.90;;;;;;5063641;28;20190;-73
2024/03/17 07:21:57;;;;;;;13.98;4.55;;;7.60;99.90;;;;;;5063684;28;20194;-71
2024/03/17 07:24:23;;;;;;;13.13;4.60;;;7.70;99.90;;;;;;5063070;28;20197;-71
2024/03/17 07:26:49;;;;;;;14.23;4.25;;;7.80;99.90;;;;;;5046010;28;20214;-71
2024/03/17 07:29:15;;;;;;;14.50;4.07;;;7.90;99.90;;;;;;5063508;28;20631;-68
2024/03/17 07:31:41;;;;;;;9.20;4.20;;;8.00;99.90;;;;;;5063156;28;20674;-68
2024/03/17 07:34:08;;;;;;;12.75;4.47;;;8.00;99.90;;;;;;5061751;28;20218;-72
2024/03/17 07:36:33;;;;;;;12.73;4.15;;;8.10;99.90;;;;;;5078882;28;20186;-68
2024/03/17 07:38:59;;;;;;;13.23;3.97;;;8.10;99.90;;;;;;5078902;28;20190;-69
2024/03/17 07:41:25;;;;;;;10.88;3.45;;;8.20;99.90;;;;;;5062519;28;20198;-69
2024/03/17 07:43:50;;;;;;;16.73;4.20;;;8.20;99.90;;;;;;5063559;28;20552;-69
2024/03/17 07:46:16;;;;;;;17.65;4.40;;;8.20;99.90;;;;;;5063329;28;20678;-69
2024/03/17 07:48:44;;;;;;;8.75;3.20;;;8.30;99.90;;;;;;5078579;28;20650;-68
2024/03/17 07:51:12;;;;;;;15.27;3.95;;;8.40;99.90;;;;;;5062692;28;20197;-70
2024/03/17 07:53:39;;;;;;;10.98;3.67;;;8.40;99.90;;;;;;5077613;28;20206;-68
2024/03/17 07:56:05;;;;;;;11.65;3.63;;;8.40;99.90;;;;;;5061706;28;20191;-70
2024/03/17 07:58:35;;;;;;;10.27;4.05;;;8.50;99.90;;;;;;5062992;28;20808;-70
2024/03/17 08:01:09;;;;;;;15.38;4.07;;;8.50;99.90;;;;;;5077475;28;20306;-69
2024/03/17 08:03:36;;;;;;;12.02;4.22;;;8.50;99.90;;;;;;5062194;28;20563;-74
2024/03/17 08:06:04;;;;;;;16.95;5.25;;;8.50;99.90;;;;;;5062040;28;20194;-71
2024/03/17 08:08:31;;;;;;;13.57;3.80;;;8.60;99.90;;;;;;5062435;28;20274;-69
2024/03/17 08:10:57;;;;;;;12.15;3.85;;;8.70;99.90;;;;;;5078421;28;20299;-70
2024/03/17 08:13:23;;;;;;;15.80;4.00;;;8.70;99.90;;;;;;5061160;28;20554;-69
2024/03/17 08:15:58;;;;;;;11.77;3.80;;;8.70;99.90;;;;;;5063025;28;20254;-69
2024/03/17 08:18:25;;;;;;;11.48;3.47;;;8.80;99.90;;;;;;5062244;28;20989;-70
2024/03/17 08:20:50;;;;;;;12.40;3.65;;;8.90;99.90;;;;;;5062692;28;20187;-71
2024/03/17 08:23:16;;;;;;;11.05;3.40;;;8.90;99.90;;;;;;5062905;28;20248;-72
2024/03/17 08:25:42;;;;;;;9.75;3.30;;;9.00;99.90;;;;;;5062456;28;20195;-71
2024/03/17 08:28:08;;;;;;;9.88;3.20;;;9.10;99.90;;;;;;5062416;28;20194;-71
2024/03/17 08:30:34;;;;;;;12.07;3.42;;;9.20;99.90;;;;;;5062154;28;20251;-72
2024/03/17 08:33:00;;;;;;;10.63;3.17;;;9.30;99.90;;;;;;5061697;28;20206;-72
2024/03/17 08:35:27;;;;;;;10.52;3.28;;;9.40;99.90;;;;;;5061147;28;20277;-75
2024/03/17 08:37:54;;;;;;;8.45;3.10;;;9.50;99.90;;;;;;5061831;28;20183;-72
2024/03/17 08:40:21;;;;;;;12.93;3.13;;;9.60;99.90;;;;;;5062247;28;20195;-71
2024/03/17 08:42:47;;;;;;;8.48;3.47;;;9.70;99.90;;;;;;5061765;28;20281;-70
2024/03/17 08:45:12;;;;;;;18.15;3.50;;;9.80;99.90;;;;;;5061926;28;20309;-67
2024/03/17 08:47:39;;;;;;;11.77;3.70;;;9.90;99.90;;;;;;5061974;28;20260;-69
2024/03/17 08:50:07;;;;;;;14.15;3.17;;;9.90;99.90;;;;;;5076276;28;20190;-70
2024/03/17 08:52:34;;;;;;;10.25;3.70;;;9.90;99.90;;;;;;5060829;28;20229;-69
2024/03/17 08:54:59;;;;;;;10.20;3.60;;;9.90;99.90;;;;;;5059744;28;20201;-68
2024/03/17 08:57:25;;;;;;;17.88;4.00;;;9.90;99.90;;;;;;5060440;28;20187;-69
2024/03/17 08:59:53;;;;;;;8.35;3.47;;;9.90;99.90;;;;;;5077482;28;20214;-68
2024/03/17 09:02:20;;;;;;;12.73;3.72;;;9.90;99.90;;;;;;5061428;28;20189;-68
2024/03/17 09:04:47;;;;;;;11.70;3.90;;;10.00;99.90;;;;;;5061628;28;20244;-67
2024/03/17 09:07:15;;;;;;;9.85;3.92;;;10.00;99.90;;;;;;5061804;28;20211;-68
2024/03/17 09:09:41;;;;;;;15.05;3.83;;;10.00;99.90;;;;;;5061353;28;20254;-70
2024/03/17 09:12:08;;;;;;;12.05;3.78;;;10.00;99.90;;;;;;5061278;28;20564;-68
2024/03/17 09:14:34;;;;;;;11.35;4.25;;;10.10;99.90;;;;;;5061437;28;20246;-69
2024/03/17 09:16:59;;;;;;;14.65;3.97;;;10.20;99.90;;;;;;5077128;28;20275;-72
2024/03/17 09:19:25;;;;;;;14.77;4.38;;;10.20;99.90;;;;;;5061437;28;20427;-70
2024/03/17 09:21:51;;;;;;;13.38;4.18;;;10.30;99.90;;;;;;5061703;28;20201;-72
2024/03/17 09:24:16;;;;;;;12.80;4.13;;;10.40;99.90;;;;;;5061910;28;20194;-69
2024/03/17 09:26:42;;;;;;;15.80;4.47;;;10.50;99.90;;;;;;5059787;28;20286;-69
2024/03/17 09:29:08;;;;;;;11.48;4.60;;;10.60;99.90;;;;;;5061115;28;20202;-71
2024/03/17 09:31:35;;;;;;;13.40;4.90;;;10.60;99.90;;;;;;5076829;28;20197;-70
2024/03/17 09:34:02;;;;;;;11.27;5.28;;;10.60;99.90;;;;;;5061558;28;20301;-71
2024/03/17 09:36:28;;;;;;;11.27;5.82;;;10.70;99.90;;;;;;5060679;28;20182;-70
2024/03/17 09:38:53;;;;;;;11.80;6.53;;;10.80;99.90;;;;;;5075961;28;20194;-71
2024/03/17 09:41:26;;;;;;;11.07;5.05;;;10.80;99.90;;;;;;5043759;28;20666;-71
2024/03/17 09:43:56;;;;;;;11.45;5.70;;;10.90;99.90;;;;;;5047562;28;21202;-70
2024/03/17 09:46:27;;;;;;;11.45;5.63;;;10.90;99.90;;;;;;5061760;28;20685;-71
2024/03/17 09:48:53;;;;;;;13.63;5.43;;;11.00;99.90;;;;;;5061015;28;20209;-71
2024/03/17 09:51:23;;;;;;;13.40;5.55;;;11.20;99.90;;;;;;5061345;28;20705;-71
2024/03/17 09:53:50;;;;;;;15.50;6.38;;;11.20;99.90;;;;;;5060084;28;20218;-70
2024/03/17 09:56:20;;;;;;;15.05;5.82;;;11.30;99.90;;;;;;5061171;28;20210;-72
2024/03/17 09:58:51;;;;;;;13.00;5.28;;;11.40;99.90;;;;;;5075803;28;20194;-71
2024/03/17 10:01:17;;;;;;;16.38;5.35;;;11.40;99.90;;;;;;5061355;28;20199;-69
2024/03/17 10:03:51;;;;;;;14.50;5.57;;;11.40;99.90;;;;;;5060530;28;20214;-71
2024/03/17 10:06:19;;;;;;;15.60;5.60;;;11.50;99.90;;;;;;5060774;28;20232;-71
2024/03/17 10:08:47;;;;;;;13.95;5.80;;;11.60;99.90;;;;;;5057060;28;20186;-70
2024/03/17 10:11:15;;;;;;;11.85;5.60;;;11.70;99.90;;;;;;5060045;28;20218;-69
2024/03/17 10:13:45;;;;;;;14.18;6.07;;;11.70;99.90;;;;;;5061177;28;20221;-72
2024/03/17 10:16:25;;;;;;;12.23;6.57;;;11.60;99.90;;;;;;5061374;28;20183;-70
2024/03/17 10:19:11;;;;;;;13.98;5.82;;;11.60;99.90;;;;;;5060509;28;20190;-70
2024/03/17 10:21:38;;;;;;;17.05;6.40;;;11.60;99.90;;;;;;5058803;28;20206;-71
2024/03/17 10:24:19;;;;;;;13.07;6.32;;;11.60;99.90;;;;;;5061033;28;20199;-73
2024/03/17 10:26:53;;;;;;;17.45;6.25;;;11.60;99.90;;;;;;5076732;28;20195;-71
2024/03/17 10:29:32;;;;;;;12.88;6.30;;;11.70;99.90;;;;;;5077411;28;20190;-69
2024/03/17 10:32:03;;;;;;;22.58;6.82;;;11.70;99.90;;;;;;5063975;28;21107;-68
2024/03/17 10:34:36;;;;;;;12.77;6.32;;;11.70;99.90;;;;;;5063158;28;20340;-70
2024/03/17 10:37:10;;;;;;;15.43;7.47;;;11.70;99.90;;;;;;5063128;28;20207;-70
2024/03/17 10:39:37;;;;;;;14.13;6.95;;;11.70;99.90;;;;;;5046144;28;20186;-69
2024/03/17 10:42:04;;;;;;;17.48;6.70;;;11.70;99.90;;;;;;5059595;28;20317;-70
2024/03/17 10:44:32;;;;;;;18.10;7.00;;;11.80;99.90;;;;;;5064945;28;20273;-70
2024/03/17 10:47:01;;;;;;;15.30;7.47;;;11.80;99.90;;;;;;5050117;28;20351;-70
2024/03/17 10:49:34;;;;;;;16.95;7.32;;;11.90;99.90;;;;;;5064500;28;20190;-70
2024/03/17 10:52:08;;;;;;;17.92;7.00;;;11.80;99.90;;;;;;5063792;28;20599;-70
2024/03/17 10:54:34;;;;;;;13.98;7.13;;;11.80;99.90;;;;;;5063965;28;20297;-69
2024/03/17 10:57:26;;;;;;;14.77;6.95;;;11.80;99.90;;;;;;5063465;28;20215;-71
2024/03/17 10:59:53;;;;;;;20.80;12.60;;;11.90;99.90;;;;;;5064322;28;20619;-69
2024/03/17 11:02:25;;;;;;;13.80;7.60;;;11.90;99.90;;;;;;5064232;28;20179;-71
2024/03/17 11:04:56;;;;;;;17.77;7.45;;;11.90;99.90;;;;;;5063783;28;20190;-69
2024/03/17 11:07:23;;;;;;;18.30;7.60;;;11.90;99.90;;;;;;5063374;28;20186;-68
2024/03/17 11:09:51;;;;;;;17.70;8.00;;;11.90;99.90;;;;;;5063326;28;20226;-71
2024/03/17 11:12:52;;;;;;;13.82;7.70;;;11.90;99.90;;;;;;5062716;28;20190;-70
2024/03/17 11:15:26;;;;;;;12.32;7.65;;;12.00;99.90;;;;;;5063825;28;20282;-72
2024/03/17 11:18:10;;;;;;;17.58;8.27;;;12.10;99.90;;;;;;5063833;28;20194;-69
2024/03/17 11:20:39;;;;;;;13.40;7.97;;;12.20;99.90;;;;;;5062182;28;20195;-70
2024/03/17 11:23:05;;;;;;;14.80;8.27;;;12.30;99.90;;;;;;5063111;28;20185;-68
2024/03/17 11:25:40;;;;;;;16.25;8.73;;;12.40;99.90;;;;;;5078797;28;20530;-71
2024/03/17 11:28:10;;;;;;;20.63;8.52;;;12.50;99.90;;;;;;5063624;28;20217;-72
2024/03/17 11:31:16;;;;;;;16.40;8.57;;;12.50;99.90;;;;;;5063286;28;20194;-75
2024/03/17 11:34:00;;;;;;;16.92;8.60;;;12.60;99.90;;;;;;5062026;28;20287;-73
2024/03/17 11:36:28;;;;;;;14.45;8.82;;;12.70;99.90;;;;;;5062813;28;20183;-72
2024/03/17 11:38:58;;;;;;;15.10;8.80;;;12.70;99.90;;;;;;5063423;28;20182;-73
2024/03/17 11:41:42;;;;;;;15.35;8.85;;;12.80;99.90;;;;;;5063203;28;20234;-71
2024/03/17 11:44:21;;;;;;;12.93;8.63;;;12.90;99.90;;;;;;5063114;28;20209;-75
2024/03/17 11:46:58;;;;;;;16.92;9.15;;;12.80;99.90;;;;;;5077918;28;20237;-71
2024/03/17 11:49:33;;;;;;;12.55;8.50;;;12.80;99.90;;;;;;5048893;28;20186;-69
2024/03/17 11:52:02;;;;;;;15.00;9.48;;;12.90;99.90;;;;;;5062584;28;20212;-73
2024/03/17 11:54:33;;;;;;;18.95;9.30;;;12.90;99.90;;;;;;5062492;28;20305;-72
2024/03/17 11:57:10;;;;;;;15.25;9.88;;;13.00;99.90;;;;;;5061871;28;20186;-72
2024/03/17 11:59:39;;;;;;;16.67;10.00;;;13.10;99.90;;;;;;5062860;28;20198;-74
2024/03/17 12:02:23;;;;;;;15.70;9.52;;;13.10;99.90;;;;;;5062812;28;20190;-73
2024/03/17 12:04:49;;;;;;;14.35;9.60;;;13.10;99.90;;;;;;5063012;28;20187;-69
2024/03/17 12:07:17;;;;;;;15.05;9.60;;;13.10;99.90;;;;;;5063621;28;20198;-70
2024/03/17 12:09:45;;;;;;;16.05;10.23;;;13.10;99.90;;;;;;5061512;28;20210;-70
2024/03/17 12:12:21;;;;;;;17.02;9.77;;;13.20;99.90;;;;;;5044788;28;20198;-72
2024/03/17 12:14:49;;;;;;;16.80;10.43;;;13.30;99.90;;;;;;5059627;28;20201;-71
2024/03/17 12:17:25;;;;;;;17.42;10.32;;;13.30;99.90;;;;;;5063150;28;20194;-71
2024/03/17 12:19:51;;;;;;;14.60;9.73;;;13.40;99.90;;;;;;5048714;28;20190;-72
2024/03/17 12:22:22;;;;;;;20.80;9.85;;;13.50;99.90;;;;;;5062332;28;20658;-71
2024/03/17 12:24:49;;;;;;;14.32;10.20;;;13.50;99.90;;;;;;5077712;28;20203;-70
2024/03/17 12:27:20;;;;;;;17.65;10.48;;;13.50;99.90;;;;;;5062228;28;20187;-70
2024/03/17 12:29:47;;;;;;;13.85;10.20;;;13.60;99.90;;;;;;5062870;28;20673;-70
2024/03/17 12:32:16;;;;;;;15.05;9.68;;;13.70;99.90;;;;;;5062437;28;20182;-70
2024/03/17 12:34:46;;;;;;;13.55;9.40;;;13.80;99.90;;;;;;5062361;28;20221;-71
2024/03/17 12:37:21;;;;;;;16.40;10.02;;;13.80;99.90;;;;;;5076951;28;20950;-72
2024/03/17 12:39:48;;;;;;;14.98;10.40;;;13.80;99.90;;;;;;5061613;28;20194;-70
2024/03/17 12:42:24;;;;;;;16.88;11.77;;;13.90;99.90;;;;;;5061319;28;20194;-71
2024/03/17 12:44:55;;;;;;;17.95;10.27;;;14.00;99.90;;;;;;5061056;28;20229;-69
2024/03/17 12:47:22;;;;;;;14.45;10.55;;;14.10;99.90;;;;;;5061907;28;20194;-70
2024/03/17 12:49:53;;;;;;;14.60;10.23;;;14.10;99.90;;;;;;5061566;28;20503;-71
2024/03/17 12:52:20;;;;;;;18.50;10.52;;;14.10;99.90;;;;;;5059443;28;20190;-72